Time;durP1;ratioP1;P1;durP2;ratioP2;P2;SDS_P1;SDS_P2;PMS_P1;PMS_P2;Temp;Humidity;BMP_temperature;BMP_pressure;BME280_temperature;BME280_humidity;BME280_pressure;Samples;Min_cycle;Max_cycle;Signal;HPM_P1;HPM_P2
2023/08/07 00:02:06;;;;;;;4.20;1.50;;;14.90;96.40;;;;;;5052531;28;20025;-70
2023/08/07 00:04:32;;;;;;;3.78;1.35;;;14.90;96.40;;;;;;5053878;28;20371;-70
2023/08/07 00:06:57;;;;;;;5.35;1.35;;;14.90;96.40;;;;;;5053811;28;20033;-71
2023/08/07 00:09:23;;;;;;;4.28;1.40;;;14.90;96.50;;;;;;5070246;28;20083;-70
2023/08/07 00:11:49;;;;;;;2.65;1.25;;;14.80;96.50;;;;;;5072409;28;20048;-69
2023/08/07 00:14:14;;;;;;;2.00;1.20;;;14.80;96.50;;;;;;5067487;28;20443;-70
2023/08/07 00:16:41;;;;;;;3.15;1.48;;;14.80;96.50;;;;;;5053450;28;20025;-71
2023/08/07 00:19:06;;;;;;;1.95;1.02;;;14.80;96.50;;;;;;5053568;28;20025;-70
2023/08/07 00:21:34;;;;;;;1.38;0.90;;;14.80;96.50;;;;;;5070724;28;20028;-69
2023/08/07 00:23:59;;;;;;;2.63;1.10;;;14.80;96.50;;;;;;5073542;28;20032;-71
2023/08/07 00:26:25;;;;;;;3.90;1.10;;;14.80;96.60;;;;;;5073151;28;20093;-71
2023/08/07 00:28:51;;;;;;;3.13;1.20;;;14.80;96.60;;;;;;5070252;28;20085;-70
2023/08/07 00:31:16;;;;;;;2.63;1.23;;;14.80;96.60;;;;;;5071366;28;20036;-71
2023/08/07 00:33:42;;;;;;;3.40;1.27;;;14.70;96.70;;;;;;5072792;28;20422;-70
2023/08/07 00:36:08;;;;;;;1.38;1.10;;;14.80;96.70;;;;;;5071173;28;20024;-72
2023/08/07 00:38:34;;;;;;;2.22;1.10;;;14.80;96.70;;;;;;5073148;28;20024;-72
2023/08/07 00:40:59;;;;;;;4.63;1.40;;;14.80;96.70;;;;;;5070155;28;20047;-70
2023/08/07 00:43:25;;;;;;;2.13;1.20;;;14.70;96.70;;;;;;5072337;28;20394;-70
2023/08/07 00:45:51;;;;;;;3.83;1.35;;;14.70;96.80;;;;;;5058519;28;20028;-71
2023/08/07 00:48:17;;;;;;;4.18;1.45;;;14.70;96.80;;;;;;5052965;28;20075;-72
2023/08/07 00:50:46;;;;;;;4.47;1.48;;;14.70;96.80;;;;;;5052957;28;20021;-72
2023/08/07 00:53:11;;;;;;;2.80;1.20;;;14.70;96.80;;;;;;5052943;28;20024;-72
2023/08/07 00:55:37;;;;;;;2.80;1.38;;;14.70;96.80;;;;;;5050853;28;20029;-72
2023/08/07 00:58:03;;;;;;;3.33;1.30;;;14.70;96.80;;;;;;5065006;28;20085;-72
2023/08/07 01:00:31;;;;;;;4.28;1.45;;;14.70;96.80;;;;;;5072556;28;20029;-72
2023/08/07 01:02:57;;;;;;;2.88;1.40;;;14.70;96.80;;;;;;5071667;28;20221;-72
2023/08/07 01:05:25;;;;;;;3.50;1.30;;;14.80;96.80;;;;;;5072785;28;20140;-70
2023/08/07 01:07:54;;;;;;;4.75;1.50;;;14.80;96.80;;;;;;5071288;28;20039;-72
2023/08/07 01:10:25;;;;;;;3.95;1.63;;;14.80;96.80;;;;;;5070305;28;20490;-72
2023/08/07 01:13:01;;;;;;;5.05;1.70;;;14.70;96.70;;;;;;5053051;28;20037;-71
2023/08/07 01:15:32;;;;;;;3.45;1.40;;;14.70;96.80;;;;;;5053486;28;20039;-70
2023/08/07 01:17:59;;;;;;;5.82;1.50;;;14.70;96.80;;;;;;5052485;28;20028;-71
2023/08/07 01:20:25;;;;;;;4.00;1.77;;;14.70;96.70;;;;;;5052432;28;20017;-72
2023/08/07 01:22:50;;;;;;;4.13;1.63;;;14.70;96.70;;;;;;5066290;28;20031;-72
2023/08/07 01:25:16;;;;;;;3.83;1.60;;;14.70;96.70;;;;;;5070433;28;20025;-72
2023/08/07 01:27:51;;;;;;;4.60;1.70;;;14.70;96.60;;;;;;5057802;28;20505;-69
2023/08/07 01:30:25;;;;;;;4.35;1.73;;;14.70;96.60;;;;;;5052496;28;20025;-70
2023/08/07 01:33:03;;;;;;;4.65;1.42;;;14.70;96.50;;;;;;5063215;28;20063;-70
2023/08/07 01:35:38;;;;;;;5.03;1.60;;;14.70;96.50;;;;;;5072289;28;20024;-69
2023/08/07 01:38:05;;;;;;;4.38;1.60;;;14.70;96.50;;;;;;5068440;28;20036;-68
2023/08/07 01:40:31;;;;;;;4.80;1.88;;;14.70;96.50;;;;;;5052163;28;20021;-69
2023/08/07 01:42:58;;;;;;;5.28;1.90;;;14.70;96.40;;;;;;5061303;28;20033;-69
2023/08/07 01:45:25;;;;;;;4.85;1.67;;;14.70;96.40;;;;;;5071063;28;20012;-69
2023/08/07 01:47:52;;;;;;;5.13;1.73;;;14.70;96.40;;;;;;5071005;28;20024;-69
2023/08/07 01:50:18;;;;;;;6.53;1.65;;;14.70;96.30;;;;;;5072233;28;20021;-69
2023/08/07 01:52:44;;;;;;;6.45;2.00;;;14.80;96.30;;;;;;5066884;28;20115;-69
2023/08/07 01:55:09;;;;;;;6.10;2.00;;;14.80;96.20;;;;;;5066034;28;20040;-70
2023/08/07 01:57:35;;;;;;;3.78;1.70;;;14.70;96.20;;;;;;5071712;28;20082;-69
2023/08/07 02:00:00;;;;;;;4.97;1.77;;;14.80;96.20;;;;;;5071780;28;20032;-68
2023/08/07 02:02:26;;;;;;;5.80;2.05;;;14.80;96.10;;;;;;5056603;28;20033;-70
2023/08/07 02:04:51;;;;;;;9.55;2.45;;;14.80;96.10;;;;;;5050599;28;20029;-68
2023/08/07 02:07:17;;;;;;;5.30;2.03;;;14.80;96.00;;;;;;5055655;28;20020;-69
2023/08/07 02:09:42;;;;;;;5.50;2.00;;;14.80;96.10;;;;;;5055883;28;20037;-69
2023/08/07 02:12:08;;;;;;;5.72;1.98;;;14.80;96.10;;;;;;5051458;28;20025;-69
2023/08/07 02:14:34;;;;;;;5.25;1.90;;;14.80;96.00;;;;;;5051171;28;20040;-69
2023/08/07 02:16:59;;;;;;;5.50;2.13;;;14.80;96.00;;;;;;5051359;28;20021;-68
2023/08/07 02:19:25;;;;;;;8.77;2.45;;;14.80;96.00;;;;;;5065369;28;20032;-69
2023/08/07 02:21:50;;;;;;;3.95;1.90;;;14.80;96.00;;;;;;5062815;28;20031;-71
2023/08/07 02:24:16;;;;;;;7.55;2.20;;;14.80;96.00;;;;;;5051166;28;20468;-69
2023/08/07 02:26:41;;;;;;;5.45;2.00;;;14.80;96.00;;;;;;5049714;28;20025;-69
2023/08/07 02:29:08;;;;;;;5.05;2.03;;;14.80;96.00;;;;;;5061565;28;20016;-69
2023/08/07 02:31:34;;;;;;;5.80;2.17;;;14.80;96.00;;;;;;5068424;28;20449;-69
2023/08/07 02:34:00;;;;;;;8.05;2.17;;;14.80;96.00;;;;;;5070890;28;20056;-69
2023/08/07 02:36:25;;;;;;;6.85;2.40;;;14.80;96.00;;;;;;5054791;28;20028;-69
2023/08/07 02:38:51;;;;;;;5.53;2.40;;;14.90;96.00;;;;;;5057581;28;20062;-68
2023/08/07 02:41:16;;;;;;;7.43;2.33;;;14.80;96.00;;;;;;5067929;28;20024;-70
2023/08/07 02:43:42;;;;;;;8.68;2.75;;;14.80;96.00;;;;;;5050616;28;20035;-69
2023/08/07 02:46:08;;;;;;;7.07;2.42;;;14.80;96.10;;;;;;5050800;28;20025;-69
2023/08/07 02:48:34;;;;;;;5.97;2.22;;;14.80;96.10;;;;;;5050852;28;20514;-70
2023/08/07 02:50:59;;;;;;;5.60;2.13;;;14.80;96.10;;;;;;5049341;28;20095;-69
2023/08/07 02:53:25;;;;;;;5.90;2.55;;;14.80;96.10;;;;;;5068139;28;20025;-70
2023/08/07 02:55:50;;;;;;;5.40;1.95;;;14.80;96.10;;;;;;5068838;28;20016;-69
2023/08/07 02:58:16;;;;;;;5.22;2.45;;;14.80;96.10;;;;;;5070363;28;20048;-69
2023/08/07 03:00:43;;;;;;;5.93;2.45;;;14.80;96.10;;;;;;5058461;28;20021;-69
2023/08/07 03:03:08;;;;;;;6.82;2.75;;;14.80;96.10;;;;;;5063317;28;20025;-67
2023/08/07 03:05:34;;;;;;;5.50;2.50;;;14.80;96.20;;;;;;5076330;28;20028;-69
2023/08/07 03:08:00;;;;;;;6.47;2.90;;;14.80;96.20;;;;;;5074760;28;20495;-69
2023/08/07 03:10:25;;;;;;;6.25;2.90;;;14.80;96.20;;;;;;5087804;28;20020;-69
2023/08/07 03:12:51;;;;;;;7.57;3.00;;;14.80;96.20;;;;;;5067440;28;20055;-69
2023/08/07 03:15:17;;;;;;;8.20;2.80;;;14.70;96.30;;;;;;5068035;28;20439;-69
2023/08/07 03:17:43;;;;;;;5.55;2.63;;;14.80;96.30;;;;;;5069311;28;20037;-68
2023/08/07 03:20:09;;;;;;;8.90;2.95;;;14.80;96.30;;;;;;5070280;28;20090;-70
2023/08/07 03:22:35;;;;;;;7.93;2.70;;;14.70;96.30;;;;;;5052912;28;20051;-69
2023/08/07 03:25:00;;;;;;;10.13;2.65;;;14.70;96.30;;;;;;5064265;28;20024;-70
2023/08/07 03:27:26;;;;;;;5.82;2.33;;;14.70;96.30;;;;;;5068197;28;20056;-70
2023/08/07 03:29:51;;;;;;;6.40;2.60;;;14.70;96.40;;;;;;5069563;28;20107;-69
2023/08/07 03:32:17;;;;;;;5.28;2.40;;;14.70;96.40;;;;;;5069335;28;20094;-68
2023/08/07 03:34:43;;;;;;;7.97;2.80;;;14.70;96.40;;;;;;5069703;28;20033;-69
2023/08/07 03:37:08;;;;;;;8.25;2.53;;;14.70;96.40;;;;;;5070023;28;20067;-69
2023/08/07 03:39:34;;;;;;;7.45;2.50;;;14.70;96.40;;;;;;5070056;28;20028;-70
2023/08/07 03:41:59;;;;;;;6.13;2.20;;;14.70;96.40;;;;;;5058684;28;20040;-69
2023/08/07 03:44:25;;;;;;;5.30;2.20;;;14.70;96.40;;;;;;5063367;28;20099;-69
2023/08/07 03:46:51;;;;;;;6.78;2.17;;;14.70;96.40;;;;;;5064307;28;20372;-69
2023/08/07 03:49:17;;;;;;;5.25;2.10;;;14.70;96.40;;;;;;5050223;28;20488;-69
2023/08/07 03:51:42;;;;;;;6.35;2.10;;;14.70;96.50;;;;;;5062984;28;20032;-68
2023/08/07 03:54:08;;;;;;;6.10;2.20;;;14.70;96.50;;;;;;5070157;28;20020;-68
2023/08/07 03:56:36;;;;;;;6.20;2.15;;;14.70;96.50;;;;;;5069074;28;20032;-69
2023/08/07 03:59:02;;;;;;;7.22;2.50;;;14.80;96.50;;;;;;5052386;28;20024;-69
2023/08/07 04:01:28;;;;;;;5.18;2.30;;;14.70;96.50;;;;;;5051242;28;20105;-68
2023/08/07 04:03:53;;;;;;;6.72;2.45;;;14.70;96.50;;;;;;5049983;28;20104;-68
2023/08/07 04:06:20;;;;;;;9.18;2.50;;;14.70;96.50;;;;;;5049682;28;20098;-69
2023/08/07 04:08:46;;;;;;;6.13;2.10;;;14.70;96.50;;;;;;5067858;28;20020;-69
2023/08/07 04:11:12;;;;;;;7.50;2.17;;;14.70;96.50;;;;;;5069386;28;20559;-69
2023/08/07 04:13:38;;;;;;;5.43;1.98;;;14.70;96.50;;;;;;5054864;28;20033;-69
2023/08/07 04:16:04;;;;;;;5.95;2.13;;;14.70;96.50;;;;;;5056216;28;20452;-69
2023/08/07 04:18:31;;;;;;;6.03;2.00;;;14.70;96.50;;;;;;5068502;28;20070;-68
2023/08/07 04:20:57;;;;;;;4.18;1.95;;;14.70;96.40;;;;;;5069397;28;20057;-69
2023/08/07 04:23:23;;;;;;;5.22;2.20;;;14.70;96.40;;;;;;5068325;28;20020;-69
2023/08/07 04:25:50;;;;;;;4.68;2.13;;;14.70;96.40;;;;;;5057856;28;20025;-69
2023/08/07 04:28:16;;;;;;;3.55;1.70;;;14.60;96.50;;;;;;5059058;28;20433;-69
2023/08/07 04:30:42;;;;;;;4.95;2.20;;;14.60;96.50;;;;;;5071515;28;20100;-70
2023/08/07 04:33:08;;;;;;;5.60;1.70;;;14.60;96.60;;;;;;5072172;28;20115;-69
2023/08/07 04:35:34;;;;;;;3.92;1.70;;;14.60;96.60;;;;;;5071569;28;20071;-68
2023/08/07 04:38:01;;;;;;;3.72;1.60;;;14.60;96.60;;;;;;5064305;28;20036;-71
2023/08/07 04:40:26;;;;;;;5.50;2.13;;;14.70;96.70;;;;;;5073318;28;20487;-70
2023/08/07 04:42:52;;;;;;;5.38;1.85;;;14.70;96.70;;;;;;5073272;28;20051;-71
2023/08/07 04:45:17;;;;;;;4.25;1.88;;;14.70;96.70;;;;;;5060768;28;20025;-70
2023/08/07 04:47:43;;;;;;;4.75;1.63;;;14.70;96.60;;;;;;5071011;28;20064;-72
2023/08/07 04:50:09;;;;;;;3.72;1.75;;;14.70;96.70;;;;;;5072132;28;20035;-71
2023/08/07 04:52:35;;;;;;;3.47;1.70;;;14.70;96.80;;;;;;5071994;28;20021;-71
2023/08/07 04:55:01;;;;;;;2.78;1.70;;;14.70;96.80;;;;;;5063845;28;20086;-71
2023/08/07 04:57:27;;;;;;;6.30;1.92;;;14.70;96.80;;;;;;5052698;28;20025;-69
2023/08/07 04:59:53;;;;;;;5.68;2.28;;;14.70;96.80;;;;;;5069021;28;20052;-70
2023/08/07 05:02:19;;;;;;;5.57;1.85;;;14.80;96.90;;;;;;5070027;28;20426;-69
2023/08/07 05:04:45;;;;;;;8.25;2.80;;;14.70;96.90;;;;;;5072659;28;20013;-70
2023/08/07 05:07:12;;;;;;;4.68;1.80;;;14.70;96.90;;;;;;5054360;28;20028;-70
2023/08/07 05:09:37;;;;;;;4.80;1.80;;;14.80;96.90;;;;;;5052644;28;20021;-68
2023/08/07 05:12:04;;;;;;;6.05;2.10;;;14.80;97.20;;;;;;5052633;28;20017;-69
2023/08/07 05:14:30;;;;;;;5.35;2.10;;;14.80;96.90;;;;;;5052470;28;20036;-70
2023/08/07 05:16:55;;;;;;;6.97;2.42;;;14.80;96.90;;;;;;5060397;28;20029;-70
2023/08/07 05:19:21;;;;;;;6.45;2.20;;;14.90;97.00;;;;;;5052436;28;20028;-69
2023/08/07 05:21:50;;;;;;;5.78;2.20;;;14.90;96.90;;;;;;5071899;28;20544;-70
2023/08/07 05:24:17;;;;;;;6.25;2.33;;;14.90;96.90;;;;;;5072380;28;20019;-70
2023/08/07 05:26:42;;;;;;;6.20;2.42;;;14.90;96.80;;;;;;5072300;28;20578;-70
2023/08/07 05:29:08;;;;;;;7.00;2.55;;;14.90;96.90;;;;;;5070724;28;20052;-71
2023/08/07 05:31:34;;;;;;;5.35;2.00;;;14.90;96.90;;;;;;5070816;28;20705;-71
2023/08/07 05:34:00;;;;;;;5.55;2.33;;;14.90;96.90;;;;;;5072082;28;20071;-70
2023/08/07 05:36:25;;;;;;;6.82;2.60;;;14.90;96.90;;;;;;5070975;28;20444;-70
2023/08/07 05:38:51;;;;;;;7.72;2.65;;;15.00;96.80;;;;;;5072067;28;20025;-68
2023/08/07 05:41:17;;;;;;;8.18;2.47;;;15.00;96.90;;;;;;5071625;28;20372;-70
2023/08/07 05:43:42;;;;;;;8.27;2.58;;;15.00;96.80;;;;;;5070245;28;20024;-70
2023/08/07 05:46:08;;;;;;;6.20;2.47;;;15.00;96.80;;;;;;5059050;28;20024;-71
2023/08/07 05:48:33;;;;;;;10.07;3.00;;;15.00;96.80;;;;;;5072023;28;20031;-70
2023/08/07 05:50:59;;;;;;;7.20;2.47;;;15.00;96.80;;;;;;5071679;28;20654;-71
2023/08/07 05:53:25;;;;;;;5.68;2.42;;;15.00;96.90;;;;;;5068876;28;20104;-71
2023/08/07 05:55:51;;;;;;;8.13;2.80;;;15.00;96.90;;;;;;5071668;28;20017;-69
2023/08/07 05:58:16;;;;;;;6.78;2.40;;;15.00;96.90;;;;;;5071555;28;20356;-69
2023/08/07 06:00:42;;;;;;;7.93;2.50;;;15.00;96.90;;;;;;5071023;28;20029;-68
2023/08/07 06:03:07;;;;;;;5.25;2.38;;;15.10;96.90;;;;;;5070113;28;20057;-71
2023/08/07 06:05:34;;;;;;;6.40;2.42;;;15.10;96.90;;;;;;5071821;28;20052;-71
2023/08/07 06:08:00;;;;;;;6.63;2.40;;;15.10;96.90;;;;;;5057230;28;20559;-69
2023/08/07 06:10:26;;;;;;;6.32;2.45;;;15.20;96.90;;;;;;5068935;28;20108;-72
2023/08/07 06:12:52;;;;;;;7.75;2.65;;;15.20;96.80;;;;;;5064544;28;20100;-72
2023/08/07 06:15:17;;;;;;;7.60;2.67;;;15.30;96.80;;;;;;5051307;28;20025;-72
2023/08/07 06:17:43;;;;;;;7.55;2.50;;;15.20;96.70;;;;;;5052450;28;20438;-73
2023/08/07 06:20:10;;;;;;;5.13;2.30;;;15.20;96.70;;;;;;5051153;28;20040;-71
2023/08/07 06:22:35;;;;;;;7.25;2.40;;;15.30;96.70;;;;;;5060312;28;20070;-72
2023/08/07 06:25:01;;;;;;;7.40;2.30;;;15.40;96.70;;;;;;5064114;28;20016;-72
2023/08/07 06:27:27;;;;;;;6.50;2.42;;;15.40;96.60;;;;;;5068675;28;20033;-71
2023/08/07 06:29:52;;;;;;;8.73;3.08;;;15.60;96.40;;;;;;5070152;28;20028;-71
2023/08/07 06:32:18;;;;;;;5.93;2.30;;;15.60;96.20;;;;;;5053782;28;20116;-70
2023/08/07 06:34:44;;;;;;;9.77;3.10;;;15.60;96.10;;;;;;5049605;28;20035;-71
2023/08/07 06:37:09;;;;;;;9.85;2.70;;;15.60;96.10;;;;;;5055525;28;20033;-70
2023/08/07 06:39:35;;;;;;;7.55;2.80;;;15.60;96.00;;;;;;5070741;28;20531;-71
2023/08/07 06:42:02;;;;;;;8.13;2.90;;;15.60;95.90;;;;;;5069580;28;20048;-71
2023/08/07 06:44:29;;;;;;;6.60;2.35;;;15.60;95.90;;;;;;5068333;28;20142;-72
2023/08/07 06:46:54;;;;;;;7.80;2.53;;;15.70;95.90;;;;;;5062773;28;20483;-72
2023/08/07 06:49:20;;;;;;;8.48;3.00;;;15.80;95.90;;;;;;5063171;28;20027;-72
2023/08/07 06:51:46;;;;;;;7.15;2.47;;;15.80;95.70;;;;;;5069840;28;20063;-71
2023/08/07 06:54:11;;;;;;;9.35;3.17;;;15.90;95.60;;;;;;5069929;28;20450;-70
2023/08/07 06:56:40;;;;;;;7.85;3.15;;;16.20;95.80;;;;;;5069045;28;20024;-71
2023/08/07 06:59:06;;;;;;;9.00;3.30;;;16.80;95.00;;;;;;5068372;28;20436;-70
2023/08/07 07:01:32;;;;;;;8.13;2.90;;;17.20;93.80;;;;;;5066345;28;20108;-71
2023/08/07 07:03:57;;;;;;;10.40;2.90;;;17.20;93.60;;;;;;5065358;28;20017;-71
2023/08/07 07:06:25;;;;;;;9.25;3.25;;;17.80;93.10;;;;;;5056334;28;20013;-71
2023/08/07 07:08:53;;;;;;;9.18;3.15;;;18.30;92.00;;;;;;5050874;28;20108;-70
2023/08/07 07:11:20;;;;;;;8.93;3.03;;;18.00;91.80;;;;;;5050650;28;20017;-70
2023/08/07 07:13:46;;;;;;;7.90;2.67;;;17.70;92.00;;;;;;5054111;28;20017;-71
2023/08/07 07:16:12;;;;;;;6.13;2.47;;;17.40;92.40;;;;;;5059078;28;20158;-71
2023/08/07 07:18:38;;;;;;;6.78;2.47;;;17.30;92.70;;;;;;5058647;28;20039;-71
2023/08/07 07:21:04;;;;;;;7.90;2.90;;;17.30;93.10;;;;;;5062947;28;20028;-71
2023/08/07 07:23:30;;;;;;;5.93;2.20;;;17.80;92.50;;;;;;5053898;28;20021;-70
2023/08/07 07:25:56;;;;;;;9.02;2.80;;;17.80;92.30;;;;;;5060664;28;20044;-70
2023/08/07 07:28:22;;;;;;;7.40;2.70;;;17.70;92.20;;;;;;5069457;28;20036;-70
2023/08/07 07:30:48;;;;;;;9.73;2.92;;;17.50;92.40;;;;;;5057392;28;20488;-70
2023/08/07 07:33:14;;;;;;;5.82;2.00;;;17.40;92.60;;;;;;5055355;28;20406;-70
2023/08/07 07:35:40;;;;;;;8.20;2.90;;;17.40;92.80;;;;;;5070090;28;20104;-70
2023/08/07 07:38:07;;;;;;;6.25;2.65;;;17.40;92.80;;;;;;5062021;28;20032;-71
2023/08/07 07:40:34;;;;;;;7.18;2.45;;;17.40;92.80;;;;;;5052403;28;20388;-71
2023/08/07 07:42:59;;;;;;;9.38;2.50;;;17.30;92.80;;;;;;5065531;28;20017;-71
2023/08/07 07:45:25;;;;;;;5.78;2.47;;;17.40;92.80;;;;;;5050270;28;20446;-71
2023/08/07 07:47:51;;;;;;;9.18;2.70;;;18.00;92.30;;;;;;5066126;28;20074;-70
2023/08/07 07:50:16;;;;;;;9.98;2.67;;;18.30;91.90;;;;;;5068212;28;20096;-70
2023/08/07 07:52:43;;;;;;;7.55;2.58;;;18.60;91.20;;;;;;5056148;28;20034;-70
2023/08/07 07:55:09;;;;;;;7.05;2.65;;;18.80;91.00;;;;;;5065855;28;20109;-71
2023/08/07 07:57:35;;;;;;;5.75;2.28;;;19.00;90.40;;;;;;5063052;28;20059;-69
2023/08/07 08:00:01;;;;;;;8.90;2.60;;;19.00;90.20;;;;;;5065003;28;20471;-69
2023/08/07 08:02:26;;;;;;;7.78;2.47;;;18.80;90.20;;;;;;5059542;28;20021;-71
2023/08/07 08:04:52;;;;;;;11.02;3.38;;;18.50;90.20;;;;;;5060523;28;20086;-70
2023/08/07 08:07:18;;;;;;;6.53;2.67;;;18.20;90.20;;;;;;5062995;28;20507;-70
2023/08/07 08:09:44;;;;;;;8.48;2.80;;;17.80;90.30;;;;;;5060690;28;20589;-69
2023/08/07 08:12:11;;;;;;;10.73;3.50;;;17.60;90.70;;;;;;5063768;28;20033;-72
2023/08/07 08:14:36;;;;;;;10.85;3.25;;;17.40;90.90;;;;;;5067380;28;20032;-70
2023/08/07 08:17:02;;;;;;;6.88;2.85;;;17.10;90.90;;;;;;5059817;28;20372;-70
2023/08/07 08:19:27;;;;;;;8.90;2.88;;;16.90;91.00;;;;;;5069876;28;20032;-71
2023/08/07 08:21:53;;;;;;;6.88;2.92;;;16.80;91.30;;;;;;5065042;28;20103;-71
2023/08/07 08:24:19;;;;;;;7.38;2.90;;;16.90;91.60;;;;;;5067818;28;20024;-70
2023/08/07 08:26:45;;;;;;;9.05;3.40;;;17.10;91.40;;;;;;5070590;28;20415;-70
2023/08/07 08:29:14;;;;;;;8.80;2.90;;;17.20;91.10;;;;;;5065626;28;20079;-70
2023/08/07 08:31:40;;;;;;;7.63;2.67;;;17.30;90.90;;;;;;5065844;28;20040;-70
2023/08/07 08:34:05;;;;;;;7.38;2.97;;;17.50;90.90;;;;;;5066468;28;20029;-71
2023/08/07 08:36:31;;;;;;;7.68;2.70;;;17.70;90.50;;;;;;5067428;28;20445;-70
2023/08/07 08:38:56;;;;;;;11.63;3.53;;;18.00;90.20;;;;;;5066145;28;20043;-71
2023/08/07 08:41:23;;;;;;;8.57;2.88;;;18.10;88.90;;;;;;5070717;28;20583;-71
2023/08/07 08:43:52;;;;;;;7.70;2.40;;;18.20;87.40;;;;;;5071636;28;20356;-70
2023/08/07 08:46:20;;;;;;;9.27;3.05;;;18.30;86.90;;;;;;5070486;28;20032;-71
2023/08/07 08:48:55;;;;;;;7.80;2.88;;;18.40;86.10;;;;;;5071387;28;20035;-70
2023/08/07 08:51:21;;;;;;;6.85;2.70;;;18.40;84.10;;;;;;5072435;28;20107;-71
2023/08/07 08:53:49;;;;;;;6.20;2.40;;;18.30;84.30;;;;;;5065670;28;20387;-71
2023/08/07 08:56:15;;;;;;;7.40;2.65;;;18.20;84.70;;;;;;5075158;28;20123;-71
2023/08/07 08:58:41;;;;;;;8.43;2.70;;;17.90;84.70;;;;;;5073114;28;20142;-71
2023/08/07 09:01:08;;;;;;;6.60;2.78;;;17.60;85.50;;;;;;5068765;28;20107;-70
2023/08/07 09:03:34;;;;;;;8.00;3.15;;;17.40;86.70;;;;;;5070148;28;20086;-69
2023/08/07 09:06:00;;;;;;;6.97;2.53;;;17.20;88.00;;;;;;5072893;28;20028;-70
2023/08/07 09:08:29;;;;;;;8.15;2.63;;;17.10;89.10;;;;;;5064137;28;20079;-70
2023/08/07 09:10:55;;;;;;;10.63;2.67;;;17.10;90.00;;;;;;5064973;28;20074;-70
2023/08/07 09:13:23;;;;;;;8.85;2.97;;;17.20;90.20;;;;;;5072343;28;20024;-72
2023/08/07 09:15:50;;;;;;;9.45;2.75;;;17.30;90.40;;;;;;5068201;28;20036;-70
2023/08/07 09:18:17;;;;;;;6.40;2.70;;;17.50;90.60;;;;;;5064137;28;20036;-71
2023/08/07 09:20:42;;;;;;;7.10;2.85;;;17.70;90.50;;;;;;5064676;28;20040;-70
2023/08/07 09:23:08;;;;;;;8.05;2.85;;;17.80;90.50;;;;;;5065556;28;20467;-70
2023/08/07 09:25:35;;;;;;;9.75;3.38;;;17.90;90.40;;;;;;5062239;28;20033;-71
2023/08/07 09:28:05;;;;;;;8.18;3.03;;;18.10;90.00;;;;;;5071030;28;20166;-70
2023/08/07 09:30:32;;;;;;;10.75;2.70;;;18.10;89.50;;;;;;5068071;28;20070;-71
2023/08/07 09:32:59;;;;;;;6.35;2.42;;;18.30;88.80;;;;;;5064339;28;20040;-70
2023/08/07 09:35:24;;;;;;;9.07;3.10;;;18.40;88.40;;;;;;5066602;28;20142;-70
2023/08/07 09:37:51;;;;;;;7.18;2.83;;;18.40;87.50;;;;;;5063146;28;20054;-71
2023/08/07 09:40:18;;;;;;;6.50;2.70;;;18.40;87.20;;;;;;5060387;28;20424;-69
2023/08/07 09:42:44;;;;;;;7.88;2.60;;;18.30;86.70;;;;;;5058017;28;20021;-70
2023/08/07 09:45:28;;;;;;;7.30;2.95;;;18.20;86.60;;;;;;5057408;28;20518;-69
2023/08/07 09:48:01;;;;;;;9.57;2.40;;;18.10;85.70;;;;;;5059591;28;20582;-68
2023/08/07 09:50:28;;;;;;;7.70;2.60;;;18.10;85.60;;;;;;5060990;28;20025;-69
2023/08/07 09:52:57;;;;;;;5.22;2.30;;;18.20;85.20;;;;;;5060264;28;20408;-70
2023/08/07 09:55:24;;;;;;;6.25;2.17;;;18.30;84.80;;;;;;5061002;28;20113;-70
2023/08/07 09:57:50;;;;;;;8.85;2.80;;;18.40;84.90;;;;;;5054543;28;20067;-70
2023/08/07 10:00:16;;;;;;;5.30;2.08;;;18.50;84.40;;;;;;5051752;28;20466;-69
2023/08/07 10:02:46;;;;;;;7.85;2.58;;;18.60;84.30;;;;;;5055803;28;20504;-70
2023/08/07 10:05:12;;;;;;;6.22;2.40;;;18.70;83.30;;;;;;5054893;28;20037;-70
2023/08/07 10:07:39;;;;;;;7.40;2.53;;;18.80;83.50;;;;;;5059939;28;20127;-69
2023/08/07 10:10:06;;;;;;;6.38;2.00;;;18.80;82.50;;;;;;5064334;28;20100;-70
2023/08/07 10:12:32;;;;;;;6.22;2.60;;;19.00;82.40;;;;;;5061216;28;20028;-69
2023/08/07 10:14:59;;;;;;;5.72;2.20;;;19.20;81.60;;;;;;5060903;28;20028;-68
2023/08/07 10:17:25;;;;;;;8.55;2.60;;;19.40;80.80;;;;;;5057601;28;20036;-70
2023/08/07 10:19:51;;;;;;;5.60;2.58;;;19.50;79.60;;;;;;5060840;28;20100;-69
2023/08/07 10:22:19;;;;;;;7.07;2.67;;;19.40;78.80;;;;;;5060142;28;20025;-71
2023/08/07 10:24:48;;;;;;;5.70;2.42;;;19.30;77.40;;;;;;5058380;28;20094;-71
2023/08/07 10:27:17;;;;;;;5.93;2.00;;;19.20;76.80;;;;;;5060776;28;20037;-71
2023/08/07 10:29:45;;;;;;;5.72;2.20;;;19.20;77.20;;;;;;5055494;28;20032;-71
2023/08/07 10:32:12;;;;;;;5.25;2.10;;;19.30;77.00;;;;;;5062533;28;20028;-71
2023/08/07 10:34:37;;;;;;;5.18;2.13;;;19.30;76.10;;;;;;5063325;28;20037;-71
2023/08/07 10:37:07;;;;;;;5.32;2.60;;;19.40;75.90;;;;;;5059916;28;20028;-71
2023/08/07 10:39:32;;;;;;;6.65;2.05;;;19.50;76.20;;;;;;5059427;28;20077;-71
2023/08/07 10:41:58;;;;;;;6.22;2.13;;;19.50;75.00;;;;;;5061335;28;20111;-72
2023/08/07 10:44:25;;;;;;;7.15;2.15;;;19.40;74.40;;;;;;5063012;28;20551;-71
2023/08/07 10:46:56;;;;;;;7.43;2.47;;;19.30;74.00;;;;;;5054984;28;20246;-72
2023/08/07 10:49:39;;;;;;;5.70;2.25;;;19.30;73.90;;;;;;5059366;28;20364;-71
2023/08/07 10:52:15;;;;;;;4.13;2.10;;;19.20;74.40;;;;;;5057958;28;20033;-71
2023/08/07 10:54:49;;;;;;;6.07;2.10;;;19.20;75.30;;;;;;5060484;28;20052;-72
2023/08/07 10:57:17;;;;;;;8.45;2.65;;;19.30;75.70;;;;;;5058076;28;20419;-72
2023/08/07 11:00:07;;;;;;;4.55;2.15;;;19.30;74.90;;;;;;5060879;28;20075;-71
2023/08/07 11:02:39;;;;;;;6.47;2.40;;;19.40;75.40;;;;;;5059797;28;20025;-71
2023/08/07 11:05:05;;;;;;;5.60;2.28;;;19.40;74.80;;;;;;5059473;28;20078;-72
2023/08/07 11:07:31;;;;;;;5.18;2.40;;;19.40;74.70;;;;;;5060620;28;20491;-71
2023/08/07 11:09:57;;;;;;;6.10;2.10;;;19.40;74.60;;;;;;5061854;28;20024;-72
2023/08/07 11:12:29;;;;;;;5.18;2.20;;;19.60;74.80;;;;;;5062520;28;20024;-71
2023/08/07 11:14:56;;;;;;;4.95;1.98;;;19.80;74.70;;;;;;5061339;28;20059;-71
2023/08/07 11:17:25;;;;;;;5.28;1.90;;;19.90;73.70;;;;;;5061016;28;20035;-71
2023/08/07 11:19:51;;;;;;;4.57;1.98;;;20.00;73.50;;;;;;5059326;28;20037;-72
2023/08/07 11:22:16;;;;;;;5.00;2.30;;;20.20;72.30;;;;;;5058220;28;20017;-71
2023/08/07 11:24:42;;;;;;;6.28;2.00;;;20.30;71.90;;;;;;5058490;28;20025;-71
2023/08/07 11:27:08;;;;;;;4.30;2.10;;;20.40;71.90;;;;;;5064377;28;20131;-71
2023/08/07 11:29:34;;;;;;;4.35;1.95;;;20.60;71.40;;;;;;5058709;28;20415;-71
2023/08/07 11:32:00;;;;;;;4.53;2.00;;;20.50;70.80;;;;;;5062187;28;20029;-71
2023/08/07 11:34:25;;;;;;;4.95;2.00;;;20.50;71.00;;;;;;5064892;28;20031;-72
2023/08/07 11:36:51;;;;;;;5.05;2.17;;;20.30;70.50;;;;;;5068153;28;20445;-72
2023/08/07 11:39:18;;;;;;;4.47;1.95;;;20.10;71.00;;;;;;5070079;28;20036;-72
2023/08/07 11:41:44;;;;;;;5.03;1.95;;;20.00;71.40;;;;;;5066864;28;20027;-72
2023/08/07 11:44:10;;;;;;;4.55;1.92;;;19.90;71.30;;;;;;5069247;28;20467;-72
2023/08/07 11:46:36;;;;;;;3.72;1.90;;;19.80;71.60;;;;;;5065022;28;20024;-72
2023/08/07 11:49:03;;;;;;;8.68;2.17;;;19.90;72.00;;;;;;5064420;28;20039;-72
2023/08/07 11:51:29;;;;;;;6.53;2.55;;;20.10;71.50;;;;;;5066194;28;20042;-72
2023/08/07 11:53:58;;;;;;;6.65;2.42;;;20.00;70.20;;;;;;5066623;28;20093;-71
2023/08/07 11:56:23;;;;;;;5.13;1.85;;;19.80;69.90;;;;;;5063649;28;20479;-71
2023/08/07 11:58:51;;;;;;;5.47;2.08;;;19.70;70.80;;;;;;5068747;28;20036;-70
2023/08/07 12:01:19;;;;;;;4.07;2.00;;;19.50;70.20;;;;;;5064373;28;20021;-72
2023/08/07 12:03:56;;;;;;;4.93;1.80;;;19.40;70.90;;;;;;5061309;28;20753;-70
2023/08/07 12:06:23;;;;;;;5.88;2.35;;;19.50;71.10;;;;;;5062173;28;20059;-71
2023/08/07 12:08:53;;;;;;;8.27;2.65;;;19.50;70.40;;;;;;5059308;28;20032;-70
2023/08/07 12:11:20;;;;;;;6.15;2.05;;;19.50;70.30;;;;;;5062355;28;20025;-72
2023/08/07 12:13:46;;;;;;;5.82;2.00;;;19.70;69.90;;;;;;5066282;28;20021;-71
2023/08/07 12:16:17;;;;;;;6.50;2.08;;;19.90;69.00;;;;;;5058237;28;20499;-72
2023/08/07 12:18:54;;;;;;;6.20;2.33;;;20.00;68.70;;;;;;5064774;28;20083;-72
2023/08/07 12:21:25;;;;;;;5.35;1.90;;;20.10;68.30;;;;;;5063466;28;20572;-72
2023/08/07 12:23:54;;;;;;;5.97;1.90;;;20.10;68.50;;;;;;5065668;28;20017;-71
2023/08/07 12:26:20;;;;;;;5.97;2.20;;;20.10;68.60;;;;;;5062505;28;20021;-70
2023/08/07 12:28:45;;;;;;;5.95;2.38;;;19.90;68.70;;;;;;5065488;28;20046;-71
2023/08/07 12:31:11;;;;;;;4.90;1.80;;;19.70;69.20;;;;;;5068015;28;20047;-70
2023/08/07 12:33:36;;;;;;;4.05;1.83;;;19.60;69.90;;;;;;5059223;28;20075;-71
2023/08/07 12:36:03;;;;;;;6.03;2.20;;;19.50;70.30;;;;;;5056942;28;20017;-71
2023/08/07 12:38:29;;;;;;;5.63;2.00;;;19.40;70.80;;;;;;5058097;28;20047;-72
2023/08/07 12:40:55;;;;;;;5.40;1.80;;;19.40;71.40;;;;;;5060612;28;20498;-71
2023/08/07 12:43:20;;;;;;;3.67;1.70;;;19.30;71.60;;;;;;5064904;28;20071;-71